sensor_id;sensor_type;location;lat;lon;timestamp;P1;durP1;ratioP1;P2;durP2;ratioP2
17494;SDS011;8864;51.970;4.614;2023-04-03T00:02:02;3.08;;;0.80;;
17494;SDS011;8864;51.970;4.614;2023-04-03T00:04:28;1.90;;;0.95;;
17494;SDS011;8864;51.970;4.614;2023-04-03T00:06:55;3.03;;;0.68;;
17494;SDS011;8864;51.970;4.614;2023-04-03T00:09:24;1.55;;;0.70;;
17494;SDS011;8864;51.970;4.614;2023-04-03T00:11:51;1.33;;;0.70;;
17494;SDS011;8864;51.970;4.614;2023-04-03T00:14:18;3.45;;;0.73;;
17494;SDS011;8864;51.970;4.614;2023-04-03T00:16:45;1.10;;;0.60;;
17494;SDS011;8864;51.970;4.614;2023-04-03T00:19:12;2.97;;;0.47;;
17494;SDS011;8864;51.970;4.614;2023-04-03T00:21:38;2.38;;;0.70;;
17494;SDS011;8864;51.970;4.614;2023-04-03T00:24:06;1.13;;;0.55;;
17494;SDS011;8864;51.970;4.614;2023-04-03T00:26:34;1.33;;;0.80;;
17494;SDS011;8864;51.970;4.614;2023-04-03T00:29:01;2.05;;;0.80;;
17494;SDS011;8864;51.970;4.614;2023-04-03T00:31:28;1.10;;;0.60;;
17494;SDS011;8864;51.970;4.614;2023-04-03T00:33:55;1.65;;;0.63;;
17494;SDS011;8864;51.970;4.614;2023-04-03T00:36:22;1.60;;;0.77;;
17494;SDS011;8864;51.970;4.614;2023-04-03T00:38:49;2.00;;;0.60;;
17494;SDS011;8864;51.970;4.614;2023-04-03T00:41:16;1.13;;;0.77;;
17494;SDS011;8864;51.970;4.614;2023-04-03T00:43:44;2.50;;;0.68;;
17494;SDS011;8864;51.970;4.614;2023-04-03T00:46:11;1.83;;;0.60;;
17494;SDS011;8864;51.970;4.614;2023-04-03T00:48:38;2.35;;;0.55;;
17494;SDS011;8864;51.970;4.614;2023-04-03T00:51:11;6.22;;;0.90;;
17494;SDS011;8864;51.970;4.614;2023-04-03T00:53:43;0.75;;;0.60;;
17494;SDS011;8864;51.970;4.614;2023-04-03T00:56:13;0.57;;;0.50;;
17494;SDS011;8864;51.970;4.614;2023-04-03T00:58:45;1.40;;;0.70;;
17494;SDS011;8864;51.970;4.614;2023-04-03T01:01:16;1.98;;;0.63;;
17494;SDS011;8864;51.970;4.614;2023-04-03T01:03:46;1.05;;;0.70;;
17494;SDS011;8864;51.970;4.614;2023-04-03T01:06:14;1.65;;;0.70;;
17494;SDS011;8864;51.970;4.614;2023-04-03T01:08:44;3.35;;;0.70;;
17494;SDS011;8864;51.970;4.614;2023-04-03T01:11:13;3.40;;;0.60;;
17494;SDS011;8864;51.970;4.614;2023-04-03T01:13:40;1.65;;;0.73;;
17494;SDS011;8864;51.970;4.614;2023-04-03T01:16:08;1.00;;;0.60;;
17494;SDS011;8864;51.970;4.614;2023-04-03T01:18:36;2.35;;;0.70;;
17494;SDS011;8864;51.970;4.614;2023-04-03T01:26:51;1.05;;;0.70;;
17494;SDS011;8864;51.970;4.614;2023-04-03T01:29:18;1.38;;;0.70;;
17494;SDS011;8864;51.970;4.614;2023-04-03T01:31:53;1.02;;;0.57;;
17494;SDS011;8864;51.970;4.614;2023-04-03T01:34:30;1.10;;;0.60;;
17494;SDS011;8864;51.970;4.614;2023-04-03T01:36:57;1.67;;;0.80;;
17494;SDS011;8864;51.970;4.614;2023-04-03T01:39:24;3.03;;;0.80;;
17494;SDS011;8864;51.970;4.614;2023-04-03T01:41:51;1.27;;;0.60;;
17494;SDS011;8864;51.970;4.614;2023-04-03T01:44:18;1.35;;;0.60;;
17494;SDS011;8864;51.970;4.614;2023-04-03T01:46:45;1.67;;;0.70;;
17494;SDS011;8864;51.970;4.614;2023-04-03T01:49:13;1.05;;;0.60;;
17494;SDS011;8864;51.970;4.614;2023-04-03T01:51:40;1.50;;;0.63;;
17494;SDS011;8864;51.970;4.614;2023-04-03T01:54:07;0.85;;;0.50;;
17494;SDS011;8864;51.970;4.614;2023-04-03T01:56:34;1.63;;;0.80;;
17494;SDS011;8864;51.970;4.614;2023-04-03T01:59:01;1.00;;;0.60;;
17494;SDS011;8864;51.970;4.614;2023-04-03T02:01:28;1.15;;;0.75;;
17494;SDS011;8864;51.970;4.614;2023-04-03T02:03:55;1.48;;;0.75;;
17494;SDS011;8864;51.970;4.614;2023-04-03T02:06:23;1.08;;;0.70;;
17494;SDS011;8864;51.970;4.614;2023-04-03T02:08:51;2.00;;;0.70;;
17494;SDS011;8864;51.970;4.614;2023-04-03T02:11:18;1.23;;;0.80;;
17494;SDS011;8864;51.970;4.614;2023-04-03T02:13:45;2.47;;;0.60;;
17494;SDS011;8864;51.970;4.614;2023-04-03T02:16:12;1.30;;;0.60;;
17494;SDS011;8864;51.970;4.614;2023-04-03T02:18:38;1.35;;;0.70;;
17494;SDS011;8864;51.970;4.614;2023-04-03T02:21:05;1.05;;;0.70;;
17494;SDS011;8864;51.970;4.614;2023-04-03T02:23:34;1.38;;;0.70;;
17494;SDS011;8864;51.970;4.614;2023-04-03T02:26:03;0.70;;;0.60;;
17494;SDS011;8864;51.970;4.614;2023-04-03T02:28:31;1.40;;;0.60;;
17494;SDS011;8864;51.970;4.614;2023-04-03T02:30:58;1.17;;;0.60;;
17494;SDS011;8864;51.970;4.614;2023-04-03T02:33:25;0.98;;;0.50;;
17494;SDS011;8864;51.970;4.614;2023-04-03T02:35:53;2.05;;;0.75;;
17494;SDS011;8864;51.970;4.614;2023-04-03T02:38:20;0.70;;;0.63;;
17494;SDS011;8864;51.970;4.614;2023-04-03T02:40:49;1.90;;;0.80;;
17494;SDS011;8864;51.970;4.614;2023-04-03T02:43:16;1.90;;;0.80;;
17494;SDS011;8864;51.970;4.614;2023-04-03T02:45:44;4.43;;;0.63;;
17494;SDS011;8864;51.970;4.614;2023-04-03T02:48:11;1.48;;;0.82;;
17494;SDS011;8864;51.970;4.614;2023-04-03T02:50:39;0.93;;;0.63;;
17494;SDS011;8864;51.970;4.614;2023-04-03T02:53:06;1.13;;;0.70;;
17494;SDS011;8864;51.970;4.614;2023-04-03T02:55:33;2.67;;;0.60;;
17494;SDS011;8864;51.970;4.614;2023-04-03T02:58:02;1.88;;;0.85;;
17494;SDS011;8864;51.970;4.614;2023-04-03T03:00:29;2.30;;;0.63;;
17494;SDS011;8864;51.970;4.614;2023-04-03T03:02:56;1.20;;;0.63;;
17494;SDS011;8864;51.970;4.614;2023-04-03T03:05:22;2.85;;;0.77;;
17494;SDS011;8864;51.970;4.614;2023-04-03T03:07:49;2.13;;;0.73;;
17494;SDS011;8864;51.970;4.614;2023-04-03T03:10:16;1.20;;;0.73;;
17494;SDS011;8864;51.970;4.614;2023-04-03T03:12:43;1.15;;;0.80;;
17494;SDS011;8864;51.970;4.614;2023-04-03T03:15:11;2.33;;;0.80;;
17494;SDS011;8864;51.970;4.614;2023-04-03T03:17:38;3.45;;;0.70;;
17494;SDS011;8864;51.970;4.614;2023-04-03T03:20:06;1.92;;;0.68;;
17494;SDS011;8864;51.970;4.614;2023-04-03T03:22:34;1.85;;;0.80;;
17494;SDS011;8864;51.970;4.614;2023-04-03T03:25:01;1.25;;;0.70;;
17494;SDS011;8864;51.970;4.614;2023-04-03T03:27:29;1.15;;;0.70;;
17494;SDS011;8864;51.970;4.614;2023-04-03T03:29:56;1.05;;;0.60;;
17494;SDS011;8864;51.970;4.614;2023-04-03T03:32:24;1.67;;;0.80;;
17494;SDS011;8864;51.970;4.614;2023-04-03T03:34:51;2.53;;;0.60;;
17494;SDS011;8864;51.970;4.614;2023-04-03T03:37:18;2.97;;;0.82;;
17494;SDS011;8864;51.970;4.614;2023-04-03T03:39:45;1.42;;;0.80;;
17494;SDS011;8864;51.970;4.614;2023-04-03T03:42:12;1.65;;;0.65;;
17494;SDS011;8864;51.970;4.614;2023-04-03T03:44:39;2.05;;;0.77;;
17494;SDS011;8864;51.970;4.614;2023-04-03T03:47:06;1.33;;;0.70;;
17494;SDS011;8864;51.970;4.614;2023-04-03T03:49:37;3.58;;;0.75;;
17494;SDS011;8864;51.970;4.614;2023-04-03T03:52:04;3.78;;;0.90;;
17494;SDS011;8864;51.970;4.614;2023-04-03T03:54:30;1.48;;;0.70;;
17494;SDS011;8864;51.970;4.614;2023-04-03T03:56:57;1.05;;;0.70;;
17494;SDS011;8864;51.970;4.614;2023-04-03T03:59:24;1.92;;;0.70;;
17494;SDS011;8864;51.970;4.614;2023-04-03T04:01:51;1.38;;;0.70;;
17494;SDS011;8864;51.970;4.614;2023-04-03T04:04:18;1.65;;;0.60;;
17494;SDS011;8864;51.970;4.614;2023-04-03T04:06:47;3.30;;;0.80;;
17494;SDS011;8864;51.970;4.614;2023-04-03T04:09:14;1.63;;;0.90;;
17494;SDS011;8864;51.970;4.614;2023-04-03T04:11:41;1.80;;;0.70;;
17494;SDS011;8864;51.970;4.614;2023-04-03T04:14:08;1.73;;;0.70;;
17494;SDS011;8864;51.970;4.614;2023-04-03T04:16:37;3.53;;;1.00;;
17494;SDS011;8864;51.970;4.614;2023-04-03T04:19:04;1.90;;;0.73;;
17494;SDS011;8864;51.970;4.614;2023-04-03T04:21:31;1.80;;;0.82;;
17494;SDS011;8864;51.970;4.614;2023-04-03T04:23:59;3.55;;;0.75;;
17494;SDS011;8864;51.970;4.614;2023-04-03T04:26:26;1.67;;;0.93;;
17494;SDS011;8864;51.970;4.614;2023-04-03T04:28:53;2.15;;;0.80;;
17494;SDS011;8864;51.970;4.614;2023-04-03T04:31:20;1.63;;;0.70;;
17494;SDS011;8864;51.970;4.614;2023-04-03T04:33:47;1.05;;;0.80;;
17494;SDS011;8864;51.970;4.614;2023-04-03T04:36:14;1.15;;;0.70;;
17494;SDS011;8864;51.970;4.614;2023-04-03T04:38:41;1.65;;;0.70;;
17494;SDS011;8864;51.970;4.614;2023-04-03T04:41:09;3.05;;;0.90;;
17494;SDS011;8864;51.970;4.614;2023-04-03T04:43:36;2.75;;;0.77;;
17494;SDS011;8864;51.970;4.614;2023-04-03T04:46:03;1.65;;;0.70;;
17494;SDS011;8864;51.970;4.614;2023-04-03T04:48:32;2.08;;;0.82;;
17494;SDS011;8864;51.970;4.614;2023-04-03T04:51:00;2.83;;;0.90;;
17494;SDS011;8864;51.970;4.614;2023-04-03T04:53:28;2.20;;;1.00;;
17494;SDS011;8864;51.970;4.614;2023-04-03T04:55:55;2.50;;;0.90;;
17494;SDS011;8864;51.970;4.614;2023-04-03T04:58:24;1.70;;;0.70;;
17494;SDS011;8864;51.970;4.614;2023-04-03T05:00:57;4.25;;;0.95;;
17494;SDS011;8864;51.970;4.614;2023-04-03T05:03:24;1.73;;;0.90;;
17494;SDS011;8864;51.970;4.614;2023-04-03T05:05:51;2.40;;;0.80;;
17494;SDS011;8864;51.970;4.614;2023-04-03T05:08:18;3.53;;;0.73;;
17494;SDS011;8864;51.970;4.614;2023-04-03T05:10:45;4.65;;;0.90;;
17494;SDS011;8864;51.970;4.614;2023-04-03T05:13:12;2.72;;;0.85;;
17494;SDS011;8864;51.970;4.614;2023-04-03T05:15:41;2.22;;;0.70;;
17494;SDS011;8864;51.970;4.614;2023-04-03T05:18:08;3.92;;;0.77;;
17494;SDS011;8864;51.970;4.614;2023-04-03T05:20:35;2.10;;;0.90;;
17494;SDS011;8864;51.970;4.614;2023-04-03T05:23:02;1.67;;;0.70;;
17494;SDS011;8864;51.970;4.614;2023-04-03T05:25:29;2.92;;;0.85;;
17494;SDS011;8864;51.970;4.614;2023-04-03T05:27:56;2.15;;;0.80;;
17494;SDS011;8864;51.970;4.614;2023-04-03T05:30:23;1.42;;;0.70;;
17494;SDS011;8864;51.970;4.614;2023-04-03T05:32:52;4.00;;;0.82;;
17494;SDS011;8864;51.970;4.614;2023-04-03T05:35:18;1.90;;;0.80;;
17494;SDS011;8864;51.970;4.614;2023-04-03T05:37:45;2.63;;;1.00;;
17494;SDS011;8864;51.970;4.614;2023-04-03T05:40:12;1.40;;;0.77;;
17494;SDS011;8864;51.970;4.614;2023-04-03T05:42:39;1.95;;;0.85;;
17494;SDS011;8864;51.970;4.614;2023-04-03T05:45:06;2.00;;;0.80;;
17494;SDS011;8864;51.970;4.614;2023-04-03T05:47:34;2.45;;;0.90;;
17494;SDS011;8864;51.970;4.614;2023-04-03T05:50:02;2.17;;;0.90;;
17494;SDS011;8864;51.970;4.614;2023-04-03T05:52:30;1.30;;;0.80;;
17494;SDS011;8864;51.970;4.614;2023-04-03T05:55:01;2.50;;;1.00;;
17494;SDS011;8864;51.970;4.614;2023-04-03T05:57:29;2.47;;;0.80;;
17494;SDS011;8864;51.970;4.614;2023-04-03T05:59:56;1.77;;;0.88;;
17494;SDS011;8864;51.970;4.614;2023-04-03T06:02:24;1.90;;;1.08;;
17494;SDS011;8864;51.970;4.614;2023-04-03T06:04:51;11.45;;;1.23;;
17494;SDS011;8864;51.970;4.614;2023-04-03T06:07:20;2.67;;;1.05;;
17494;SDS011;8864;51.970;4.614;2023-04-03T06:09:49;1.20;;;0.80;;
17494;SDS011;8864;51.970;4.614;2023-04-03T06:12:17;2.35;;;0.90;;
17494;SDS011;8864;51.970;4.614;2023-04-03T06:14:45;2.45;;;0.80;;
17494;SDS011;8864;51.970;4.614;2023-04-03T06:17:12;2.17;;;0.88;;
17494;SDS011;8864;51.970;4.614;2023-04-03T06:19:40;2.47;;;0.98;;
17494;SDS011;8864;51.970;4.614;2023-04-03T06:22:07;2.33;;;1.00;;
17494;SDS011;8864;51.970;4.614;2023-04-03T06:24:36;7.32;;;1.45;;
17494;SDS011;8864;51.970;4.614;2023-04-03T06:27:03;2.90;;;0.90;;
17494;SDS011;8864;51.970;4.614;2023-04-03T06:29:30;3.10;;;0.90;;
17494;SDS011;8864;51.970;4.614;2023-04-03T06:31:57;5.28;;;0.75;;
17494;SDS011;8864;51.970;4.614;2023-04-03T06:34:25;2.92;;;0.90;;
17494;SDS011;8864;51.970;4.614;2023-04-03T06:36:52;3.42;;;1.00;;
17494;SDS011;8864;51.970;4.614;2023-04-03T06:39:20;1.70;;;0.77;;
17494;SDS011;8864;51.970;4.614;2023-04-03T06:41:49;2.67;;;0.93;;
17494;SDS011;8864;51.970;4.614;2023-04-03T06:44:17;2.55;;;0.90;;
17494;SDS011;8864;51.970;4.614;2023-04-03T06:46:44;3.40;;;1.00;;
17494;SDS011;8864;51.970;4.614;2023-04-03T06:49:11;3.42;;;1.17;;
17494;SDS011;8864;51.970;4.614;2023-04-03T06:51:38;3.85;;;0.70;;
17494;SDS011;8864;51.970;4.614;2023-04-03T06:54:05;1.80;;;0.70;;
17494;SDS011;8864;51.970;4.614;2023-04-03T06:56:33;2.28;;;0.85;;
17494;SDS011;8864;51.970;4.614;2023-04-03T06:59:02;2.45;;;0.85;;
17494;SDS011;8864;51.970;4.614;2023-04-03T07:01:29;3.45;;;1.55;;
17494;SDS011;8864;51.970;4.614;2023-04-03T07:03:58;1.92;;;1.00;;
17494;SDS011;8864;51.970;4.614;2023-04-03T07:06:27;4.05;;;0.82;;
17494;SDS011;8864;51.970;4.614;2023-04-03T07:08:54;3.63;;;0.90;;
17494;SDS011;8864;51.970;4.614;2023-04-03T07:11:23;1.52;;;0.73;;
17494;SDS011;8864;51.970;4.614;2023-04-03T07:13:55;2.03;;;0.70;;
17494;SDS011;8864;51.970;4.614;2023-04-03T07:16:25;0.75;;;0.65;;
17494;SDS011;8864;51.970;4.614;2023-04-03T07:18:57;6.15;;;1.42;;
17494;SDS011;8864;51.970;4.614;2023-04-03T07:21:42;5.18;;;1.63;;
17494;SDS011;8864;51.970;4.614;2023-04-03T07:24:13;6.40;;;1.58;;
17494;SDS011;8864;51.970;4.614;2023-04-03T07:26:40;3.50;;;1.15;;
17494;SDS011;8864;51.970;4.614;2023-04-03T07:29:06;7.82;;;1.50;;
17494;SDS011;8864;51.970;4.614;2023-04-03T07:31:35;4.47;;;1.40;;
17494;SDS011;8864;51.970;4.614;2023-04-03T07:34:03;7.82;;;1.60;;
17494;SDS011;8864;51.970;4.614;2023-04-03T07:36:30;6.07;;;1.77;;
17494;SDS011;8864;51.970;4.614;2023-04-03T07:38:58;10.63;;;2.15;;
17494;SDS011;8864;51.970;4.614;2023-04-03T07:41:25;11.23;;;2.05;;
17494;SDS011;8864;51.970;4.614;2023-04-03T07:43:53;9.18;;;2.08;;
17494;SDS011;8864;51.970;4.614;2023-04-03T07:46:21;8.60;;;1.73;;
17494;SDS011;8864;51.970;4.614;2023-04-03T07:48:50;8.98;;;2.00;;
17494;SDS011;8864;51.970;4.614;2023-04-03T07:51:16;9.00;;;1.92;;
17494;SDS011;8864;51.970;4.614;2023-04-03T07:53:44;11.50;;;2.00;;
17494;SDS011;8864;51.970;4.614;2023-04-03T07:56:11;12.50;;;1.98;;
17494;SDS011;8864;51.970;4.614;2023-04-03T07:58:38;9.55;;;2.10;;
17494;SDS011;8864;51.970;4.614;2023-04-03T08:01:05;6.93;;;1.63;;
17494;SDS011;8864;51.970;4.614;2023-04-03T08:03:33;9.13;;;1.92;;
17494;SDS011;8864;51.970;4.614;2023-04-03T08:06:03;6.88;;;1.45;;
17494;SDS011;8864;51.970;4.614;2023-04-03T08:08:31;5.95;;;1.65;;
17494;SDS011;8864;51.970;4.614;2023-04-03T08:10:59;4.65;;;1.30;;
17494;SDS011;8864;51.970;4.614;2023-04-03T08:13:28;5.60;;;1.67;;
17494;SDS011;8864;51.970;4.614;2023-04-03T08:15:55;6.35;;;1.50;;
17494;SDS011;8864;51.970;4.614;2023-04-03T08:18:24;9.45;;;1.75;;
17494;SDS011;8864;51.970;4.614;2023-04-03T08:20:51;4.28;;;1.33;;
17494;SDS011;8864;51.970;4.614;2023-04-03T08:23:20;5.18;;;1.48;;
17494;SDS011;8864;51.970;4.614;2023-04-03T08:25:47;7.30;;;1.58;;
17494;SDS011;8864;51.970;4.614;2023-04-03T08:28:14;7.93;;;1.58;;
17494;SDS011;8864;51.970;4.614;2023-04-03T08:30:41;2.58;;;1.00;;
17494;SDS011;8864;51.970;4.614;2023-04-03T08:33:08;6.53;;;1.23;;
17494;SDS011;8864;51.970;4.614;2023-04-03T08:35:38;2.92;;;1.02;;
17494;SDS011;8864;51.970;4.614;2023-04-03T08:38:06;2.85;;;1.00;;
17494;SDS011;8864;51.970;4.614;2023-04-03T08:40:35;5.32;;;1.27;;
17494;SDS011;8864;51.970;4.614;2023-04-03T08:43:04;2.65;;;1.10;;
17494;SDS011;8864;51.970;4.614;2023-04-03T08:45:52;5.63;;;1.38;;
17494;SDS011;8864;51.970;4.614;2023-04-03T08:48:21;6.15;;;1.27;;
17494;SDS011;8864;51.970;4.614;2023-04-03T08:50:54;3.67;;;0.90;;
17494;SDS011;8864;51.970;4.614;2023-04-03T08:53:25;2.72;;;1.10;;
17494;SDS011;8864;51.970;4.614;2023-04-03T08:55:58;3.67;;;1.40;;
17494;SDS011;8864;51.970;4.614;2023-04-03T08:58:29;3.15;;;0.93;;
17494;SDS011;8864;51.970;4.614;2023-04-03T09:01:00;2.28;;;0.93;;
17494;SDS011;8864;51.970;4.614;2023-04-03T09:03:29;1.90;;;0.95;;
17494;SDS011;8864;51.970;4.614;2023-04-03T09:05:59;2.55;;;1.08;;
17494;SDS011;8864;51.970;4.614;2023-04-03T09:08:30;4.72;;;0.90;;
17494;SDS011;8864;51.970;4.614;2023-04-03T09:11:04;4.53;;;1.23;;
17494;SDS011;8864;51.970;4.614;2023-04-03T09:13:37;2.88;;;0.70;;
17494;SDS011;8864;51.970;4.614;2023-04-03T09:16:16;2.47;;;0.80;;
17494;SDS011;8864;51.970;4.614;2023-04-03T09:18:52;3.80;;;0.70;;
17494;SDS011;8864;51.970;4.614;2023-04-03T09:21:25;3.20;;;0.80;;
17494;SDS011;8864;51.970;4.614;2023-04-03T09:23:58;2.55;;;0.90;;
17494;SDS011;8864;51.970;4.614;2023-04-03T09:26:30;3.42;;;0.90;;
17494;SDS011;8864;51.970;4.614;2023-04-03T09:29:02;3.33;;;0.80;;
17494;SDS011;8864;51.970;4.614;2023-04-03T09:31:35;2.60;;;0.80;;
17494;SDS011;8864;51.970;4.614;2023-04-03T09:34:06;3.65;;;0.90;;
17494;SDS011;8864;51.970;4.614;2023-04-03T09:36:39;3.53;;;0.90;;
17494;SDS011;8864;51.970;4.614;2023-04-03T09:39:10;1.35;;;0.80;;
17494;SDS011;8864;51.970;4.614;2023-04-03T09:41:41;3.17;;;1.00;;
17494;SDS011;8864;51.970;4.614;2023-04-03T09:44:21;2.22;;;0.80;;
17494;SDS011;8864;51.970;4.614;2023-04-03T09:46:49;1.55;;;0.63;;
17494;SDS011;8864;51.970;4.614;2023-04-03T09:49:16;1.30;;;0.77;;
17494;SDS011;8864;51.970;4.614;2023-04-03T09:51:44;2.50;;;0.80;;
17494;SDS011;8864;51.970;4.614;2023-04-03T09:54:26;2.95;;;0.90;;
17494;SDS011;8864;51.970;4.614;2023-04-03T09:57:09;2.20;;;0.75;;
17494;SDS011;8864;51.970;4.614;2023-04-03T09:59:41;2.90;;;0.90;;
17494;SDS011;8864;51.970;4.614;2023-04-03T10:02:30;2.58;;;0.70;;
17494;SDS011;8864;51.970;4.614;2023-04-03T10:08:06;2.60;;;0.73;;
17494;SDS011;8864;51.970;4.614;2023-04-03T10:10:45;3.28;;;0.73;;
17494;SDS011;8864;51.970;4.614;2023-04-03T10:13:14;1.05;;;0.63;;
17494;SDS011;8864;51.970;4.614;2023-04-03T10:15:45;3.53;;;0.80;;
17494;SDS011;8864;51.970;4.614;2023-04-03T10:18:26;2.00;;;0.70;;
17494;SDS011;8864;51.970;4.614;2023-04-03T10:20:58;1.80;;;0.82;;
17494;SDS011;8864;51.970;4.614;2023-04-03T10:23:33;4.45;;;0.90;;
17494;SDS011;8864;51.970;4.614;2023-04-03T10:26:09;4.38;;;0.80;;
17494;SDS011;8864;51.970;4.614;2023-04-03T10:28:45;4.05;;;0.60;;
17494;SDS011;8864;51.970;4.614;2023-04-03T10:31:21;5.32;;;0.65;;
17494;SDS011;8864;51.970;4.614;2023-04-03T10:33:57;3.45;;;0.80;;
17494;SDS011;8864;51.970;4.614;2023-04-03T10:36:33;1.52;;;0.63;;
17494;SDS011;8864;51.970;4.614;2023-04-03T10:39:08;0.55;;;0.40;;
17494;SDS011;8864;51.970;4.614;2023-04-03T10:41:47;1.55;;;0.40;;
17494;SDS011;8864;51.970;4.614;2023-04-03T10:44:26;3.33;;;0.70;;
17494;SDS011;8864;51.970;4.614;2023-04-03T10:47:05;1.55;;;0.88;;
17494;SDS011;8864;51.970;4.614;2023-04-03T10:49:40;1.73;;;0.65;;
17494;SDS011;8864;51.970;4.614;2023-04-03T10:52:17;0.85;;;0.50;;
17494;SDS011;8864;51.970;4.614;2023-04-03T10:54:50;3.55;;;0.70;;
17494;SDS011;8864;51.970;4.614;2023-04-03T10:57:26;3.35;;;0.75;;
17494;SDS011;8864;51.970;4.614;2023-04-03T10:59:57;3.75;;;0.60;;
17494;SDS011;8864;51.970;4.614;2023-04-03T11:02:28;1.52;;;0.70;;
17494;SDS011;8864;51.970;4.614;2023-04-03T11:04:59;2.25;;;0.70;;
17494;SDS011;8864;51.970;4.614;2023-04-03T11:07:32;5.57;;;0.90;;
17494;SDS011;8864;51.970;4.614;2023-04-03T11:10:03;2.72;;;0.60;;
17494;SDS011;8864;51.970;4.614;2023-04-03T11:12:40;3.95;;;1.25;;
17494;SDS011;8864;51.970;4.614;2023-04-03T11:15:13;16.20;;;2.75;;
17494;SDS011;8864;51.970;4.614;2023-04-03T11:17:43;15.18;;;2.63;;
17494;SDS011;8864;51.970;4.614;2023-04-03T11:20:16;11.30;;;1.92;;
17494;SDS011;8864;51.970;4.614;2023-04-03T11:22:47;6.53;;;1.35;;
17494;SDS011;8864;51.970;4.614;2023-04-03T11:25:19;8.60;;;1.13;;
17494;SDS011;8864;51.970;4.614;2023-04-03T11:27:49;4.80;;;0.90;;
17494;SDS011;8864;51.970;4.614;2023-04-03T11:30:24;2.47;;;1.00;;
17494;SDS011;8864;51.970;4.614;2023-04-03T11:35:49;4.32;;;1.02;;
17494;SDS011;8864;51.970;4.614;2023-04-03T11:38:21;3.70;;;0.68;;
17494;SDS011;8864;51.970;4.614;2023-04-03T11:40:52;4.20;;;1.17;;
17494;SDS011;8864;51.970;4.614;2023-04-03T11:43:22;2.55;;;0.60;;
17494;SDS011;8864;51.970;4.614;2023-04-03T11:45:57;1.40;;;0.77;;
17494;SDS011;8864;51.970;4.614;2023-04-03T12:03:32;1.33;;;0.52;;
17494;SDS011;8864;51.970;4.614;2023-04-03T12:09:22;2.78;;;0.70;;
17494;SDS011;8864;51.970;4.614;2023-04-03T12:11:56;1.95;;;0.50;;
17494;SDS011;8864;51.970;4.614;2023-04-03T12:14:25;1.42;;;0.50;;
17494;SDS011;8864;51.970;4.614;2023-04-03T12:16:55;0.47;;;0.40;;
17494;SDS011;8864;51.970;4.614;2023-04-03T12:22:12;0.80;;;0.50;;
17494;SDS011;8864;51.970;4.614;2023-04-03T12:24:41;2.13;;;0.45;;
17494;SDS011;8864;51.970;4.614;2023-04-03T12:27:15;2.30;;;0.50;;
17494;SDS011;8864;51.970;4.614;2023-04-03T12:30:03;1.05;;;0.50;;
17494;SDS011;8864;51.970;4.614;2023-04-03T12:33:01;4.75;;;0.75;;
17494;SDS011;8864;51.970;4.614;2023-04-03T12:35:54;4.40;;;0.60;;
17494;SDS011;8864;51.970;4.614;2023-04-03T12:38:49;0.63;;;0.38;;
17494;SDS011;8864;51.970;4.614;2023-04-03T12:41:30;3.40;;;0.60;;
17494;SDS011;8864;51.970;4.614;2023-04-03T12:44:11;1.05;;;0.55;;
17494;SDS011;8864;51.970;4.614;2023-04-03T12:47:00;4.72;;;0.55;;
17494;SDS011;8864;51.970;4.614;2023-04-03T12:49:35;1.15;;;0.60;;
17494;SDS011;8864;51.970;4.614;2023-04-03T12:52:06;0.95;;;0.55;;
17494;SDS011;8864;51.970;4.614;2023-04-03T12:54:46;1.77;;;0.82;;
17494;SDS011;8864;51.970;4.614;2023-04-03T12:57:16;2.40;;;0.55;;
17494;SDS011;8864;51.970;4.614;2023-04-03T12:59:45;0.80;;;0.30;;
17494;SDS011;8864;51.970;4.614;2023-04-03T13:02:19;0.88;;;0.50;;
17494;SDS011;8864;51.970;4.614;2023-04-03T13:04:49;3.22;;;0.70;;
17494;SDS011;8864;51.970;4.614;2023-04-03T13:07:22;2.30;;;0.50;;
17494;SDS011;8864;51.970;4.614;2023-04-03T13:09:55;1.95;;;0.68;;
17494;SDS011;8864;51.970;4.614;2023-04-03T13:12:28;1.30;;;0.52;;
17494;SDS011;8864;51.970;4.614;2023-04-03T13:14:56;1.30;;;0.55;;
17494;SDS011;8864;51.970;4.614;2023-04-03T13:17:25;1.00;;;0.60;;
17494;SDS011;8864;51.970;4.614;2023-04-03T13:19:53;0.90;;;0.50;;
17494;SDS011;8864;51.970;4.614;2023-04-03T13:22:27;2.17;;;0.68;;
17494;SDS011;8864;51.970;4.614;2023-04-03T13:24:58;1.20;;;0.60;;
17494;SDS011;8864;51.970;4.614;2023-04-03T13:27:31;6.50;;;0.50;;
17494;SDS011;8864;51.970;4.614;2023-04-03T13:29:59;0.80;;;0.60;;
17494;SDS011;8864;51.970;4.614;2023-04-03T13:32:31;5.95;;;0.90;;
17494;SDS011;8864;51.970;4.614;2023-04-03T13:34:59;3.13;;;0.60;;
17494;SDS011;8864;51.970;4.614;2023-04-03T13:37:31;2.80;;;0.80;;
17494;SDS011;8864;51.970;4.614;2023-04-03T13:40:02;0.80;;;0.60;;
17494;SDS011;8864;51.970;4.614;2023-04-03T13:42:39;5.40;;;0.68;;
17494;SDS011;8864;51.970;4.614;2023-04-03T13:45:18;1.80;;;0.80;;
17494;SDS011;8864;51.970;4.614;2023-04-03T13:47:49;1.08;;;0.40;;
17494;SDS011;8864;51.970;4.614;2023-04-03T13:50:19;1.00;;;0.65;;
17494;SDS011;8864;51.970;4.614;2023-04-03T13:52:50;9.85;;;0.70;;
17494;SDS011;8864;51.970;4.614;2023-04-03T13:55:22;3.58;;;0.90;;
17494;SDS011;8864;51.970;4.614;2023-04-03T13:57:53;3.47;;;0.68;;
17494;SDS011;8864;51.970;4.614;2023-04-03T14:00:34;10.07;;;1.58;;
17494;SDS011;8864;51.970;4.614;2023-04-03T14:03:11;3.33;;;0.50;;
17494;SDS011;8864;51.970;4.614;2023-04-03T14:05:39;1.77;;;0.40;;
17494;SDS011;8864;51.970;4.614;2023-04-03T14:08:07;0.93;;;0.40;;
17494;SDS011;8864;51.970;4.614;2023-04-03T14:10:35;0.68;;;0.50;;
17494;SDS011;8864;51.970;4.614;2023-04-03T14:13:02;0.95;;;0.50;;
17494;SDS011;8864;51.970;4.614;2023-04-03T14:15:30;2.78;;;0.88;;
17494;SDS011;8864;51.970;4.614;2023-04-03T14:17:57;0.65;;;0.43;;
17494;SDS011;8864;51.970;4.614;2023-04-03T14:20:25;1.65;;;0.50;;
17494;SDS011;8864;51.970;4.614;2023-04-03T14:22:53;0.90;;;0.55;;
17494;SDS011;8864;51.970;4.614;2023-04-03T14:25:21;1.55;;;0.47;;
17494;SDS011;8864;51.970;4.614;2023-04-03T14:27:49;2.30;;;0.82;;
17494;SDS011;8864;51.970;4.614;2023-04-03T14:30:21;4.65;;;0.40;;
17494;SDS011;8864;51.970;4.614;2023-04-03T14:32:49;2.03;;;0.60;;
17494;SDS011;8864;51.970;4.614;2023-04-03T14:35:17;0.93;;;0.50;;
17494;SDS011;8864;51.970;4.614;2023-04-03T14:37:45;2.45;;;0.55;;
17494;SDS011;8864;51.970;4.614;2023-04-03T14:40:14;0.70;;;0.50;;
17494;SDS011;8864;51.970;4.614;2023-04-03T14:42:46;3.72;;;0.50;;
17494;SDS011;8864;51.970;4.614;2023-04-03T14:45:14;1.67;;;0.60;;
17494;SDS011;8864;51.970;4.614;2023-04-03T14:47:42;2.65;;;0.40;;
17494;SDS011;8864;51.970;4.614;2023-04-03T14:50:14;1.38;;;0.50;;
17494;SDS011;8864;51.970;4.614;2023-04-03T14:52:43;0.80;;;0.63;;
17494;SDS011;8864;51.970;4.614;2023-04-03T14:55:11;1.40;;;0.50;;
17494;SDS011;8864;51.970;4.614;2023-04-03T14:57:40;1.55;;;0.55;;
17494;SDS011;8864;51.970;4.614;2023-04-03T15:00:12;1.63;;;0.60;;
17494;SDS011;8864;51.970;4.614;2023-04-03T15:02:41;0.60;;;0.57;;
17494;SDS011;8864;51.970;4.614;2023-04-03T15:05:09;0.98;;;0.45;;
17494;SDS011;8864;51.970;4.614;2023-04-03T15:07:38;0.63;;;0.40;;
17494;SDS011;8864;51.970;4.614;2023-04-03T15:10:14;1.10;;;0.50;;
17494;SDS011;8864;51.970;4.614;2023-04-03T15:12:43;1.73;;;0.50;;
17494;SDS011;8864;51.970;4.614;2023-04-03T15:15:12;1.20;;;0.68;;
17494;SDS011;8864;51.970;4.614;2023-04-03T15:17:39;2.50;;;0.80;;
17494;SDS011;8864;51.970;4.614;2023-04-03T15:20:10;0.73;;;0.57;;
17494;SDS011;8864;51.970;4.614;2023-04-03T15:22:39;0.57;;;0.40;;
17494;SDS011;8864;51.970;4.614;2023-04-03T15:25:06;2.30;;;0.63;;
17494;SDS011;8864;51.970;4.614;2023-04-03T15:27:34;1.02;;;0.50;;
17494;SDS011;8864;51.970;4.614;2023-04-03T15:30:01;1.33;;;0.40;;
17494;SDS011;8864;51.970;4.614;2023-04-03T15:32:30;2.75;;;0.95;;
17494;SDS011;8864;51.970;4.614;2023-04-03T15:34:58;1.13;;;0.55;;
17494;SDS011;8864;51.970;4.614;2023-04-03T15:37:25;0.63;;;0.50;;
17494;SDS011;8864;51.970;4.614;2023-04-03T15:39:52;1.27;;;0.70;;
17494;SDS011;8864;51.970;4.614;2023-04-03T15:42:19;1.33;;;0.60;;
17494;SDS011;8864;51.970;4.614;2023-04-03T15:44:46;1.08;;;0.68;;
17494;SDS011;8864;51.970;4.614;2023-04-03T15:47:13;1.92;;;0.65;;
17494;SDS011;8864;51.970;4.614;2023-04-03T15:49:42;0.98;;;0.60;;